Terminal Aerodrome Forecast
Issued by NWS

Home | Current Version | Previous Version | Text Only | Print | Product List | Glossary On
Versions: 1 2 3 4 5 6 7 8 9 10 11 12 13 14 15 16 17 18 19 20 21 22 23 24 25 26 27 28 29 30 31 32 33 34 35 36 37 38 39
000
FTUS41 KPBZ 252339
TAFLBE
TAF
KLBE 252339Z 2600/2624 25009G14KT P6SM SCT250
     FM260400 25004KT P6SM SKC
     FM261500 25009KT P6SM SCT250
     FM262000 25011G17KT P6SM VCSH BKN100=

USA.gov is the U.S. government's official web portal to all federal, state and local government web resources and services.